createdAt,value
2018-02-12T00:01:07.401Z,9.83
2018-02-12T00:06:18.202Z,9.82
2018-02-12T00:08:46.913Z,9.82
2018-02-12T00:11:14.624Z,9.84
2018-02-12T00:13:42.335Z,9.81
2018-02-12T00:16:10.001Z,9.83
2018-02-12T00:18:39.566Z,9.81
2018-02-12T00:21:09.302Z,9.76
2018-02-12T00:23:37.308Z,9.79
2018-02-12T00:26:06.411Z,9.71
2018-02-12T00:28:35.228Z,9.76
2018-02-12T00:31:03.172Z,9.76
2018-02-12T00:33:31.042Z,9.77
2018-02-12T00:35:58.809Z,9.75
2018-02-12T00:38:26.475Z,9.74
2018-02-12T00:40:54.278Z,9.72
2018-02-12T00:43:21.996Z,9.73
2018-02-12T00:45:49.632Z,9.71
2018-02-12T00:48:17.272Z,9.71
2018-02-12T00:50:44.981Z,9.71
2018-02-12T00:53:12.591Z,9.71
2018-02-12T00:55:41.178Z,9.71
2018-02-12T00:58:08.809Z,9.72
2018-02-12T01:00:36.474Z,9.69
2018-02-12T01:03:04.090Z,9.66
2018-02-12T01:05:31.744Z,9.66
2018-02-12T01:07:59.404Z,9.65
2018-02-12T01:10:27.994Z,9.64
2018-02-12T01:12:55.663Z,9.64
2018-02-12T01:15:23.302Z,9.61
2018-02-12T01:17:50.979Z,9.62
2018-02-12T01:20:18.718Z,9.58
2018-02-12T01:22:46.429Z,9.59
2018-02-12T01:25:14.090Z,9.60
2018-02-12T01:27:41.735Z,9.60
2018-02-12T01:30:09.496Z,9.59
2018-02-12T01:32:37.153Z,9.58
2018-02-12T01:35:05.336Z,9.59
2018-02-12T01:37:33.013Z,9.57
2018-02-12T01:40:00.664Z,9.57
2018-02-12T01:42:28.425Z,9.55
2018-02-12T01:44:56.075Z,9.55
2018-02-12T01:47:24.289Z,9.54
2018-02-12T01:50:03.706Z,9.54
2018-02-12T01:52:31.349Z,9.53
2018-02-12T01:54:59.099Z,9.52
2018-02-12T01:57:26.791Z,9.54
2018-02-12T01:59:54.408Z,9.52
2018-02-12T02:02:25.396Z,9.52
2018-02-12T02:04:58.419Z,9.52
2018-02-12T02:07:28.118Z,9.54
2018-02-12T02:09:57.556Z,9.53
2018-02-12T02:12:25.289Z,9.54
2018-02-12T02:14:53.104Z,9.53
2018-02-12T02:17:20.790Z,9.53
2018-02-12T02:19:48.439Z,9.54
2018-02-12T02:22:16.060Z,9.51
2018-02-12T02:24:44.738Z,9.51
2018-02-12T02:27:12.449Z,9.50
2018-02-12T02:29:40.096Z,9.49
2018-02-12T02:32:09.021Z,9.50
2018-02-12T02:34:36.621Z,9.47
2018-02-12T02:37:04.440Z,9.49
2018-02-12T02:39:35.235Z,9.49
2018-02-12T02:42:02.880Z,9.48
2018-02-12T02:44:30.563Z,9.49
2018-02-12T02:46:58.234Z,9.45
2018-02-12T02:49:25.914Z,9.48
2018-02-12T02:51:53.529Z,9.45
2018-02-12T02:54:21.221Z,9.44
2018-02-12T02:56:48.915Z,9.44
2018-02-12T02:59:16.625Z,9.44
2018-02-12T03:01:44.270Z,9.42
2018-02-12T03:04:11.891Z,9.44
2018-02-12T03:06:39.476Z,9.42
2018-02-12T03:09:07.092Z,9.43
2018-02-12T03:11:34.774Z,9.40
2018-02-12T03:14:02.431Z,9.41
2018-02-12T03:16:30.246Z,9.41
2018-02-12T03:18:57.875Z,9.42
2018-02-12T03:21:25.902Z,9.42
2018-02-12T03:23:53.560Z,9.41
2018-02-12T03:26:21.224Z,9.42
2018-02-12T03:28:48.872Z,9.40
2018-02-12T03:31:16.543Z,9.40
2018-02-12T03:33:44.243Z,9.39
2018-02-12T03:36:12.126Z,9.40
2018-02-12T03:38:39.814Z,9.40
2018-02-12T03:41:07.469Z,9.28
2018-02-12T03:43:35.199Z,9.38
2018-02-12T03:46:02.906Z,9.38
2018-02-12T03:48:30.568Z,9.38
2018-02-12T03:50:58.260Z,9.38
2018-02-12T03:53:25.915Z,9.38
2018-02-12T03:55:53.607Z,9.37
2018-02-12T03:58:21.293Z,9.37
2018-02-12T04:00:49.583Z,9.36
2018-02-12T04:03:17.216Z,9.35
2018-02-12T04:05:44.906Z,9.32
2018-02-12T04:08:12.561Z,9.31
2018-02-12T04:10:40.247Z,9.31
2018-02-12T04:13:07.994Z,9.31
2018-02-12T04:15:35.615Z,9.31
2018-02-12T04:18:03.263Z,9.31
2018-02-12T04:20:30.933Z,9.31
2018-02-12T04:22:58.633Z,9.31
2018-02-12T04:25:26.409Z,9.33
2018-02-12T04:27:54.064Z,9.30
2018-02-12T04:30:21.785Z,9.33
2018-02-12T04:32:49.498Z,9.29
2018-02-12T04:35:17.132Z,9.31
2018-02-12T04:37:44.969Z,9.31
2018-02-12T04:40:12.692Z,9.30
2018-02-12T04:42:41.998Z,9.27
2018-02-12T04:45:09.629Z,9.25
2018-02-12T04:47:37.312Z,9.28
2018-02-12T04:50:05.010Z,9.27
2018-02-12T04:52:32.713Z,9.26
2018-02-12T04:55:00.399Z,9.27
2018-02-12T04:57:28.266Z,9.25
2018-02-12T04:59:55.928Z,9.25
2018-02-12T05:02:23.592Z,9.25
2018-02-12T05:04:51.266Z,9.25
2018-02-12T05:07:18.941Z,9.24
2018-02-12T05:09:46.666Z,9.23
2018-02-12T05:12:14.306Z,9.25
2018-02-12T05:14:41.905Z,9.23
2018-02-12T05:17:09.985Z,9.23
2018-02-12T05:19:37.653Z,9.23
2018-02-12T05:22:05.562Z,9.21
2018-02-12T05:24:33.201Z,9.36
2018-02-12T05:27:00.983Z,9.37
2018-02-12T05:29:28.611Z,9.32
2018-02-12T05:31:56.480Z,9.26
2018-02-12T05:34:24.182Z,9.19
2018-02-12T05:36:51.872Z,9.10
2018-02-12T05:39:19.625Z,9.02
2018-02-12T05:41:47.305Z,8.93
2018-02-12T05:44:15.028Z,8.81
2018-02-12T05:46:44.602Z,8.70
2018-02-12T05:49:12.460Z,8.70
2018-02-12T05:51:40.138Z,8.69
2018-02-12T05:54:09.058Z,8.65
2018-02-12T05:56:36.773Z,8.63
2018-02-12T05:59:04.495Z,8.53
2018-02-12T06:01:32.285Z,8.47
2018-02-12T06:03:59.931Z,8.47
2018-02-12T06:06:27.630Z,8.52
2018-02-12T06:08:55.282Z,8.56
2018-02-12T06:11:22.961Z,8.59
2018-02-12T06:13:50.655Z,8.65
2018-02-12T06:16:18.315Z,8.56
2018-02-12T06:18:46.005Z,8.70
2018-02-12T06:21:13.654Z,8.70
2018-02-12T06:23:41.393Z,8.79
2018-02-12T06:26:09.083Z,8.85
2018-02-12T06:28:37.251Z,8.87
2018-02-12T06:31:04.948Z,8.91
2018-02-12T06:33:33.222Z,8.95
2018-02-12T06:36:00.984Z,9.04
2018-02-12T06:38:29.399Z,9.12
2018-02-12T06:40:57.246Z,9.27
2018-02-12T06:43:24.840Z,9.38
2018-02-12T06:45:52.645Z,9.71
2018-02-12T06:48:20.403Z,10.00
2018-02-12T06:50:48.180Z,10.21
2018-02-12T06:53:15.955Z,10.40
2018-02-12T06:55:43.664Z,10.55
2018-02-12T06:58:11.324Z,10.73
2018-02-12T07:00:38.991Z,10.88
2018-02-12T07:03:06.648Z,11.04
2018-02-12T07:05:34.289Z,11.12
2018-02-12T07:08:01.958Z,11.13
2018-02-12T07:10:29.564Z,11.14
2018-02-12T07:12:57.263Z,11.20
2018-02-12T07:15:24.884Z,11.29
2018-02-12T07:17:52.538Z,11.37
2018-02-12T07:20:20.175Z,11.47
2018-02-12T07:22:47.827Z,11.58
2018-02-12T07:25:15.549Z,11.61
2018-02-12T07:27:43.196Z,11.63
2018-02-12T07:30:10.970Z,11.64
2018-02-12T07:32:38.661Z,11.66
2018-02-12T07:35:06.346Z,11.77
2018-02-12T07:37:33.968Z,11.91
2018-02-12T07:40:01.608Z,12.05
2018-02-12T07:42:29.262Z,12.08
2018-02-12T07:44:57.832Z,11.99
2018-02-12T07:47:25.570Z,11.89
2018-02-12T07:49:53.167Z,11.83
2018-02-12T07:52:20.974Z,11.60
2018-02-12T07:54:48.677Z,11.67
2018-02-12T07:57:16.312Z,11.60
2018-02-12T07:59:43.990Z,11.59
2018-02-12T08:02:11.638Z,11.58
2018-02-12T08:04:39.295Z,11.59
2018-02-12T08:07:07.043Z,11.60
2018-02-12T08:09:34.712Z,11.66
2018-02-12T08:12:02.401Z,11.72
2018-02-12T08:14:30.012Z,11.72
2018-02-12T08:16:57.719Z,11.72
2018-02-12T08:19:25.463Z,11.67
2018-02-12T08:21:53.574Z,11.64
2018-02-12T08:24:21.255Z,11.62
2018-02-12T08:26:48.932Z,11.63
2018-02-12T08:29:16.601Z,11.73
2018-02-12T08:31:44.270Z,11.78
2018-02-12T08:34:11.946Z,11.70
2018-02-12T08:36:39.619Z,11.60
2018-02-12T08:39:07.305Z,11.45
2018-02-12T08:41:34.967Z,11.38
2018-02-12T08:44:02.695Z,11.34
2018-02-12T08:46:30.325Z,11.35
2018-02-12T08:48:58.035Z,11.36
2018-02-12T08:51:25.703Z,11.34
2018-02-12T08:53:53.408Z,11.32
2018-02-12T08:56:21.049Z,11.31
2018-02-12T08:58:48.870Z,11.34
2018-02-12T09:01:16.600Z,11.35
2018-02-12T09:03:44.256Z,11.34
2018-02-12T09:06:11.960Z,11.34
2018-02-12T09:08:39.658Z,11.37
2018-02-12T09:11:07.321Z,11.35
2018-02-12T09:13:35.082Z,11.27
2018-02-12T09:16:02.705Z,11.24
2018-02-12T09:18:30.349Z,11.21
2018-02-12T09:20:58.054Z,11.19
2018-02-12T09:23:25.688Z,11.08
2018-02-12T09:25:53.332Z,11.13
2018-02-12T09:28:20.986Z,11.10
2018-02-12T09:30:48.675Z,11.15
2018-02-12T09:33:16.494Z,11.07
2018-02-12T09:35:44.114Z,11.10
2018-02-12T09:38:11.759Z,11.18
2018-02-12T09:40:39.410Z,11.23
2018-02-12T09:43:07.070Z,11.16
2018-02-12T09:45:34.728Z,11.34
2018-02-12T09:48:02.542Z,11.37
2018-02-12T09:50:30.386Z,11.42
2018-02-12T09:52:58.060Z,11.42
2018-02-12T09:55:25.688Z,11.37
2018-02-12T09:57:53.326Z,11.42
2018-02-12T10:00:21.033Z,11.49
2018-02-12T10:02:48.702Z,11.52
2018-02-12T10:05:16.360Z,11.61
2018-02-12T10:07:44.040Z,11.66
2018-02-12T10:10:11.919Z,11.60
2018-02-12T10:12:39.647Z,11.66
2018-02-12T10:15:07.315Z,11.67
2018-02-12T10:17:35.055Z,11.66
2018-02-12T10:20:02.741Z,11.59
2018-02-12T10:22:30.376Z,11.49
2018-02-12T10:24:58.071Z,11.31
2018-02-12T10:27:25.709Z,11.51
2018-02-12T10:29:53.380Z,11.51
2018-02-12T10:32:21.052Z,11.63
2018-02-12T10:34:48.677Z,11.68
2018-02-12T10:37:16.373Z,11.69
2018-02-12T10:39:44.056Z,11.75
2018-02-12T10:42:11.698Z,11.83
2018-02-12T10:44:39.384Z,11.91
2018-02-12T10:47:07.022Z,11.86
2018-02-12T10:49:35.536Z,11.67
2018-02-12T10:52:03.185Z,11.62
2018-02-12T10:54:30.798Z,11.40
2018-02-12T10:56:58.523Z,11.25
2018-02-12T10:59:26.211Z,11.10
2018-02-12T11:01:53.915Z,11.22
2018-02-12T11:04:21.643Z,11.38
2018-02-12T11:06:49.343Z,11.49
2018-02-12T11:09:16.980Z,11.60
2018-02-12T11:14:35.603Z,11.68
2018-02-12T11:17:03.260Z,11.57
2018-02-12T11:19:30.907Z,11.47
2018-02-12T11:21:58.559Z,11.41
2018-02-12T11:24:26.202Z,11.48
2018-02-12T11:26:53.883Z,11.50
2018-02-12T11:29:21.544Z,11.55
2018-02-12T11:31:49.246Z,11.54
2018-02-12T11:34:16.909Z,11.45
2018-02-12T11:36:44.583Z,11.31
2018-02-12T11:39:12.242Z,11.28
2018-02-12T11:41:40.018Z,11.26
2018-02-12T11:44:07.724Z,11.24
2018-02-12T11:46:35.399Z,11.30
2018-02-12T11:49:03.048Z,11.41
2018-02-12T11:51:30.741Z,11.68
2018-02-12T11:53:58.369Z,11.85
2018-02-12T11:56:26.103Z,12.04
2018-02-12T11:58:53.777Z,12.19
2018-02-12T12:01:21.493Z,12.26
2018-02-12T12:03:49.168Z,12.37
2018-02-12T12:06:16.830Z,12.45
2018-02-12T12:08:44.544Z,12.40
2018-02-12T12:11:12.225Z,12.36
2018-02-12T12:13:39.903Z,12.29
2018-02-12T12:16:07.556Z,12.35
2018-02-12T12:18:35.213Z,12.20
2018-02-12T12:21:02.895Z,12.17
2018-02-12T12:23:30.935Z,12.03
2018-02-12T12:25:58.604Z,11.85
2018-02-12T12:28:26.277Z,11.69
2018-02-12T12:30:53.886Z,11.54
2018-02-12T12:33:21.586Z,11.43
2018-02-12T12:35:49.353Z,11.53
2018-02-12T12:38:17.027Z,11.61
2018-02-12T12:40:44.776Z,11.67
2018-02-12T12:43:12.519Z,11.71
2018-02-12T12:45:40.312Z,11.76
2018-02-12T12:48:08.042Z,11.80
2018-02-12T12:50:35.713Z,11.85
2018-02-12T12:53:03.344Z,11.87
2018-02-12T12:55:30.987Z,11.84
2018-02-12T12:57:58.636Z,11.97
2018-02-12T13:00:26.352Z,12.04
2018-02-12T13:02:56.396Z,12.14
2018-02-12T13:05:24.058Z,12.13
2018-02-12T13:07:51.731Z,12.11
2018-02-12T13:10:19.411Z,12.15
2018-02-12T13:12:47.129Z,11.62
2018-02-12T13:15:14.789Z,11.75
2018-02-12T13:17:42.455Z,11.71
2018-02-12T13:20:10.129Z,11.76
2018-02-12T13:22:37.809Z,11.71
2018-02-12T13:25:05.552Z,11.56
2018-02-12T13:27:33.251Z,11.49
2018-02-12T13:30:00.891Z,11.48
2018-02-12T13:32:28.543Z,11.42
2018-02-12T13:34:56.947Z,11.46
2018-02-12T13:37:24.593Z,11.54
2018-02-12T13:39:52.259Z,11.55
2018-02-12T13:42:19.927Z,11.49
2018-02-12T13:47:19.308Z,11.39
2018-02-12T13:49:47.005Z,11.27
2018-02-12T13:52:14.681Z,11.24
2018-02-12T13:54:42.395Z,11.25
2018-02-12T13:57:10.041Z,11.26
2018-02-12T13:59:37.729Z,11.20
2018-02-12T14:02:05.425Z,11.20
2018-02-12T14:04:33.073Z,11.19
2018-02-12T14:07:02.278Z,11.09
2018-02-12T14:12:01.916Z,10.91
2018-02-12T14:14:29.576Z,10.74
2018-02-12T14:16:57.245Z,10.72
2018-02-12T14:19:24.915Z,10.68
2018-02-12T14:21:52.595Z,10.57
2018-02-12T14:24:20.271Z,10.59
2018-02-12T14:26:47.907Z,10.55
2018-02-12T14:29:15.761Z,10.49
2018-02-12T14:31:43.467Z,10.36
2018-02-12T14:34:11.134Z,10.22
2018-02-12T14:36:38.768Z,10.33
2018-02-12T14:39:06.459Z,10.22
2018-02-12T14:41:34.171Z,10.24
2018-02-12T14:44:01.903Z,10.24
2018-02-12T14:46:29.553Z,10.16
2018-02-12T14:48:57.351Z,10.02
2018-02-12T14:51:24.991Z,10.02
2018-02-12T14:53:53.635Z,9.62
2018-02-12T14:56:21.403Z,9.39
2018-02-12T14:58:49.053Z,9.39
2018-02-12T15:01:16.748Z,9.46
2018-02-12T15:03:44.414Z,9.55
2018-02-12T15:06:12.042Z,9.57
2018-02-12T15:08:40.408Z,9.46
2018-02-12T15:11:08.043Z,9.45
2018-02-12T15:13:35.664Z,9.39
2018-02-12T15:16:03.274Z,9.93
2018-02-12T15:18:31.565Z,11.71
2018-02-12T15:20:59.552Z,12.47
2018-02-12T15:23:27.904Z,13.08
2018-02-12T15:25:55.529Z,12.32
2018-02-12T15:28:23.835Z,11.92
2018-02-12T15:30:52.331Z,11.48
2018-02-12T15:33:20.006Z,11.03
2018-02-12T15:35:48.649Z,10.69
2018-02-12T15:38:16.280Z,10.39
2018-02-12T15:40:43.872Z,10.14
2018-02-12T15:43:12.320Z,9.89
2018-02-12T15:45:39.990Z,9.73
2018-02-12T15:48:07.564Z,9.56
2018-02-12T15:50:35.169Z,9.44
2018-02-12T15:53:04.199Z,9.35
2018-02-12T15:55:31.818Z,9.33
2018-02-12T15:57:59.484Z,9.31
2018-02-12T16:00:27.143Z,9.20
2018-02-12T16:02:54.739Z,9.21
2018-02-12T16:05:22.674Z,9.16
2018-02-12T16:07:50.300Z,9.12
2018-02-12T16:10:18.073Z,9.07
2018-02-12T16:12:45.676Z,8.94
2018-02-12T16:15:13.305Z,8.92
2018-02-12T16:17:41.633Z,8.95
2018-02-12T16:20:09.341Z,8.94
2018-02-12T16:22:36.957Z,8.77
2018-02-12T16:25:04.625Z,8.82
2018-02-12T16:27:32.335Z,8.72
2018-02-12T16:29:59.995Z,8.83
2018-02-12T16:32:27.582Z,9.06
2018-02-12T16:34:56.110Z,8.94
2018-02-12T16:37:23.789Z,8.90
2018-02-12T16:39:51.424Z,8.85
2018-02-12T16:42:19.027Z,8.70
2018-02-12T16:44:46.692Z,8.77
2018-02-12T16:47:15.375Z,8.84
2018-02-12T16:49:43.026Z,8.95
2018-02-12T16:52:10.612Z,8.95
2018-02-12T16:54:38.499Z,8.90
2018-02-12T16:57:06.554Z,8.91
2018-02-12T16:59:35.001Z,8.90
2018-02-12T17:02:03.003Z,8.89
2018-02-12T17:04:33.392Z,8.84
2018-02-12T17:07:02.347Z,8.93
2018-02-12T17:09:31.956Z,8.92
2018-02-12T17:12:03.886Z,8.97
2018-02-12T17:17:11.970Z,8.96
2018-02-12T17:19:40.887Z,8.95
2018-02-12T17:22:09.769Z,8.96
2018-02-12T17:24:38.300Z,8.97
2018-02-12T17:27:06.911Z,8.98
2018-02-12T17:29:37.519Z,8.91
2018-02-12T17:32:06.107Z,8.92
2018-02-12T17:34:34.634Z,8.87
2018-02-12T17:37:02.404Z,8.85
2018-02-12T17:39:30.127Z,8.84
2018-02-12T17:41:57.728Z,8.82
2018-02-12T17:44:25.553Z,8.83
2018-02-12T17:46:54.153Z,8.83
2018-02-12T17:49:22.740Z,8.82
2018-02-12T17:51:50.571Z,8.81
2018-02-12T17:54:20.699Z,8.81
2018-02-12T17:56:48.612Z,8.82
2018-02-12T17:59:17.236Z,8.81
2018-02-12T18:01:46.006Z,8.82
2018-02-12T18:04:13.947Z,8.82
2018-02-12T18:06:41.731Z,8.80
2018-02-12T18:09:13.758Z,8.81
2018-02-12T18:11:41.539Z,8.85
2018-02-12T18:14:10.639Z,8.84
2018-02-12T18:16:38.495Z,9.62
2018-02-12T18:19:06.302Z,9.57
2018-02-12T18:21:34.814Z,9.53
2018-02-12T18:24:03.146Z,9.46
2018-02-12T18:26:30.921Z,9.45
2018-02-12T18:28:58.866Z,9.38
2018-02-12T18:31:28.029Z,9.32
2018-02-12T18:33:57.210Z,9.29
2018-02-12T18:36:25.829Z,9.30
2018-02-12T18:38:53.778Z,9.25
2018-02-12T18:41:22.214Z,9.22
2018-02-12T18:43:50.025Z,9.21
2018-02-12T18:46:17.873Z,9.14
2018-02-12T18:48:46.512Z,9.13
2018-02-12T18:51:14.131Z,9.11
2018-02-12T18:53:42.663Z,9.11
2018-02-12T18:56:11.175Z,9.09
2018-02-12T18:58:38.835Z,9.09
2018-02-12T19:01:07.368Z,9.09
2018-02-12T19:03:35.580Z,9.07
2018-02-12T19:06:04.655Z,9.06
2018-02-12T19:08:32.611Z,9.05
2018-02-12T19:11:00.266Z,9.02
2018-02-12T19:13:27.968Z,8.96
2018-02-12T19:15:55.614Z,9.03
2018-02-12T19:18:23.456Z,9.04
2018-02-12T19:20:51.406Z,9.03
2018-02-12T19:23:19.090Z,9.02
2018-02-12T19:25:47.578Z,9.02
2018-02-12T19:28:15.245Z,9.02
2018-02-12T19:30:44.122Z,9.01
2018-02-12T19:33:11.686Z,9.00
2018-02-12T19:35:39.427Z,8.98
2018-02-12T19:38:07.266Z,8.98
2018-02-12T19:40:35.202Z,8.99
2018-02-12T19:43:02.913Z,8.96
2018-02-12T19:45:31.856Z,8.95
2018-02-12T19:48:00.911Z,8.90
2018-02-12T19:50:28.774Z,8.86
2018-02-12T19:52:56.478Z,8.87
2018-02-12T19:55:24.510Z,8.85
2018-02-12T19:57:52.811Z,8.85
2018-02-12T20:00:23.220Z,8.81
2018-02-12T20:02:51.391Z,8.78
2018-02-12T20:05:19.323Z,8.76
2018-02-12T20:07:47.077Z,8.72
2018-02-12T20:10:14.698Z,8.68
2018-02-12T20:12:43.216Z,8.66
2018-02-12T20:15:10.846Z,8.53
2018-02-12T20:17:38.606Z,8.58
2018-02-12T20:20:06.376Z,8.52
2018-02-12T20:22:33.982Z,9.23
2018-02-12T20:25:01.613Z,9.18
2018-02-12T20:27:29.152Z,9.08
2018-02-12T20:29:56.730Z,8.93
2018-02-12T20:32:24.345Z,8.90
2018-02-12T20:34:51.936Z,8.86
2018-02-12T20:37:19.536Z,8.83
2018-02-12T20:39:47.139Z,8.82
2018-02-12T20:42:14.918Z,8.79
2018-02-12T20:44:42.520Z,8.81
2018-02-12T20:47:10.144Z,8.79
2018-02-12T20:49:37.759Z,8.80
2018-02-12T20:52:05.369Z,8.81
2018-02-12T20:54:33.005Z,8.83
2018-02-12T20:57:00.608Z,8.85
2018-02-12T20:59:28.380Z,8.86
2018-02-12T21:01:55.978Z,8.88
2018-02-12T21:04:23.770Z,8.88
2018-02-12T21:06:51.327Z,8.86
2018-02-12T21:09:18.972Z,8.84
2018-02-12T21:11:46.542Z,8.84
2018-02-12T21:14:14.884Z,8.83
2018-02-12T21:16:42.489Z,8.82
2018-02-12T21:19:10.104Z,8.77
2018-02-12T21:21:37.670Z,8.74
2018-02-12T21:24:05.234Z,8.70
2018-02-12T21:26:32.834Z,8.68
2018-02-12T21:29:00.391Z,8.64
2018-02-12T21:31:27.998Z,8.60
2018-02-12T21:33:55.601Z,8.51
2018-02-12T21:36:23.412Z,8.55
2018-02-12T21:38:50.967Z,8.51
2018-02-12T21:41:18.582Z,8.50
2018-02-12T21:43:46.185Z,8.46
2018-02-12T21:46:13.777Z,8.46
2018-02-12T21:48:41.533Z,8.44
2018-02-12T21:51:09.128Z,8.40
2018-02-12T21:53:36.727Z,8.39
2018-02-12T21:56:04.330Z,8.34
2018-02-12T21:58:32.086Z,8.24
2018-02-12T22:00:59.680Z,8.29
2018-02-12T22:03:27.251Z,8.31
2018-02-12T22:05:54.881Z,8.27
2018-02-12T22:08:22.511Z,8.28
2018-02-12T22:10:50.095Z,8.26
2018-02-12T22:13:17.684Z,8.20
2018-02-12T22:15:45.229Z,8.21
2018-02-12T22:18:13.552Z,8.18
2018-02-12T22:20:41.117Z,8.09
2018-02-12T22:23:08.754Z,8.16
2018-02-12T22:25:36.348Z,8.11
2018-02-12T22:28:03.991Z,8.04
2018-02-12T22:30:31.613Z,8.08
2018-02-12T22:32:59.620Z,8.04
2018-02-12T22:35:27.340Z,8.04
2018-02-12T22:37:54.938Z,8.04
2018-02-12T22:40:22.511Z,8.03
2018-02-12T22:42:50.167Z,7.95
2018-02-12T22:45:17.768Z,7.99
2018-02-12T22:47:46.172Z,7.95
2018-02-12T22:50:13.806Z,7.96
2018-02-12T22:52:41.365Z,7.69
2018-02-12T22:55:08.973Z,7.95
2018-02-12T22:57:36.574Z,7.95
2018-02-12T23:00:06.578Z,7.93
2018-02-12T23:02:34.212Z,7.91
2018-02-12T23:05:02.039Z,7.88
2018-02-12T23:07:29.854Z,7.88
2018-02-12T23:09:58.097Z,7.87
2018-02-12T23:12:26.496Z,7.88
2018-02-12T23:14:54.294Z,7.85
2018-02-12T23:17:22.596Z,7.81
2018-02-12T23:19:50.157Z,7.83
2018-02-12T23:22:18.226Z,7.81
2018-02-12T23:24:45.848Z,7.81
2018-02-12T23:27:13.484Z,7.78
2018-02-12T23:29:41.230Z,7.74
2018-02-12T23:32:09.169Z,7.77
2018-02-12T23:34:36.810Z,7.76
2018-02-12T23:37:04.428Z,7.77
2018-02-12T23:39:32.228Z,7.76
2018-02-12T23:41:59.783Z,7.73
2018-02-12T23:44:27.953Z,7.70
2018-02-12T23:46:55.563Z,7.69
2018-02-12T23:49:23.204Z,7.71
2018-02-12T23:51:50.785Z,7.70
2018-02-12T23:54:25.271Z,7.68
2018-02-12T23:56:53.188Z,7.68
2018-02-12T23:59:20.948Z,7.68
